Time;durP1;ratioP1;P1;durP2;ratioP2;P2;SDS_P1;SDS_P2;PMS_P1;PMS_P2;Temp;Humidity;BMP_temperature;BMP_pressure;BME280_temperature;BME280_humidity;BME280_pressure;Samples;Min_cycle;Max_cycle;Signal;HPM_P1;HPM_P2
2022/08/09 00:00:39;;;;;;;5.38;2.42;;;14.70;99.90;;;;;;4977720;28;20049;-88
2022/08/09 00:03:04;;;;;;;5.90;2.70;;;14.60;99.90;;;;;;4994528;28;20101;-90
2022/08/09 00:05:30;;;;;;;2.60;2.40;;;14.60;99.90;;;;;;4976598;28;20037;-89
2022/08/09 00:07:56;;;;;;;5.75;2.72;;;14.50;99.90;;;;;;4994101;28;20026;-90
2022/08/09 00:10:21;;;;;;;3.22;2.60;;;14.50;99.90;;;;;;4976460;28;20507;-87
2022/08/09 00:12:48;;;;;;;8.40;3.17;;;14.50;99.90;;;;;;4977087;28;20034;-89
2022/08/09 00:15:14;;;;;;;7.38;2.80;;;14.50;99.90;;;;;;4976606;28;20023;-88
2022/08/09 00:17:39;;;;;;;6.57;2.72;;;14.40;99.90;;;;;;4993525;28;20030;-90
2022/08/09 00:20:05;;;;;;;3.33;2.42;;;14.40;99.90;;;;;;4993890;28;20042;-88
2022/08/09 00:22:31;;;;;;;4.97;2.50;;;14.30;99.90;;;;;;4977085;28;20023;-91
2022/08/09 00:24:57;;;;;;;4.65;2.63;;;14.30;99.90;;;;;;4977381;28;20053;-88
2022/08/09 00:27:22;;;;;;;4.82;2.63;;;14.20;99.90;;;;;;4976308;28;20053;-87
2022/08/09 00:29:48;;;;;;;8.50;2.55;;;14.20;99.90;;;;;;4977207;28;20030;-90
2022/08/09 00:32:15;;;;;;;6.18;2.70;;;14.10;99.90;;;;;;4976879;28;20022;-89
2022/08/09 00:34:40;;;;;;;3.95;2.60;;;14.10;99.90;;;;;;4994499;28;20065;-87
2022/08/09 00:37:06;;;;;;;5.47;2.90;;;14.10;99.90;;;;;;4980631;28;20030;-88
2022/08/09 00:39:32;;;;;;;4.47;2.58;;;14.00;99.90;;;;;;4977860;28;20091;-89
2022/08/09 00:41:57;;;;;;;5.75;3.30;;;13.90;99.90;;;;;;4976619;28;20448;-89
2022/08/09 00:44:23;;;;;;;5.18;3.08;;;13.80;99.90;;;;;;4976563;28;20480;-89
2022/08/09 00:46:49;;;;;;;4.13;2.75;;;13.80;99.90;;;;;;4976241;28;20338;-89
2022/08/09 00:49:14;;;;;;;4.50;2.80;;;13.70;99.90;;;;;;4976582;28;20047;-88
2022/08/09 00:51:40;;;;;;;4.90;2.97;;;13.60;99.90;;;;;;4975712;28;20054;-89
2022/08/09 00:54:06;;;;;;;6.80;2.92;;;13.60;99.90;;;;;;4975871;28;20160;-90
2022/08/09 00:56:32;;;;;;;5.05;2.80;;;13.50;99.90;;;;;;4993578;28;20030;-88
2022/08/09 00:58:58;;;;;;;6.57;2.95;;;13.50;99.90;;;;;;4976346;28;20204;-89
2022/08/09 01:01:31;;;;;;;6.38;3.13;;;13.40;99.90;;;;;;4994218;28;20117;-86
2022/08/09 01:04:05;;;;;;;4.57;2.50;;;13.40;99.90;;;;;;4976458;28;20070;-88
2022/08/09 01:06:41;;;;;;;5.93;2.85;;;13.30;99.90;;;;;;4976630;28;20036;-91
2022/08/09 01:09:13;;;;;;;5.38;2.45;;;13.30;99.90;;;;;;4994550;28;20033;-90
2022/08/09 01:11:52;;;;;;;5.15;3.10;;;13.20;99.90;;;;;;4978210;28;20089;-90
2022/08/09 01:14:46;;;;;;;5.38;3.22;;;13.20;99.90;;;;;;4977767;28;20031;-89
2022/08/09 01:17:21;;;;;;;4.78;3.40;;;13.20;99.90;;;;;;4982593;28;20176;-89
2022/08/09 01:20:18;;;;;;;5.10;2.80;;;13.20;99.90;;;;;;4984784;28;20081;-89
2022/08/09 01:23:06;;;;;;;5.45;3.00;;;13.10;99.90;;;;;;4997814;28;20026;-89
2022/08/09 01:25:55;;;;;;;5.55;2.63;;;13.10;99.90;;;;;;4998155;28;20041;-92
2022/08/09 01:28:23;;;;;;;5.40;2.58;;;13.10;99.90;;;;;;4980977;28;20045;-89
2022/08/09 01:30:51;;;;;;;4.28;2.97;;;13.10;99.90;;;;;;4996669;28;20042;-89
2022/08/09 01:33:20;;;;;;;6.70;3.13;;;13.10;99.90;;;;;;4993769;28;20629;-91
2022/08/09 01:35:52;;;;;;;7.00;3.40;;;13.00;99.90;;;;;;4976402;28;20041;-90
2022/08/09 01:38:23;;;;;;;5.05;3.10;;;13.00;99.90;;;;;;4976886;28;20034;-89
2022/08/09 01:40:57;;;;;;;4.43;2.90;;;13.00;99.90;;;;;;4994163;28;20062;-90
2022/08/09 01:43:23;;;;;;;5.28;2.92;;;13.00;99.90;;;;;;4976357;28;20023;-87
2022/08/09 01:45:50;;;;;;;5.82;3.13;;;13.00;99.90;;;;;;4995297;28;20042;-89
2022/08/09 01:48:20;;;;;;;4.90;2.67;;;13.00;99.90;;;;;;4983171;28;20104;-89
2022/08/09 01:50:49;;;;;;;3.88;2.70;;;12.90;99.90;;;;;;4988162;28;20027;-91
2022/08/09 01:53:16;;;;;;;3.55;2.40;;;12.90;99.90;;;;;;5014335;28;20064;-85
2022/08/09 01:55:44;;;;;;;5.32;2.92;;;12.80;99.90;;;;;;5000557;28;20018;-85
2022/08/09 01:58:12;;;;;;;3.60;2.72;;;12.70;99.90;;;;;;4992775;28;20026;-89
2022/08/09 02:00:39;;;;;;;4.72;2.92;;;12.70;99.90;;;;;;4993449;28;20048;-86
2022/08/09 02:03:06;;;;;;;6.50;3.00;;;12.60;99.90;;;;;;4990137;28;20037;-86
2022/08/09 02:05:33;;;;;;;3.22;2.60;;;12.60;99.90;;;;;;5004862;28;20475;-88
2022/08/09 02:08:03;;;;;;;8.00;2.60;;;12.50;99.90;;;;;;5003833;28;20101;-89
2022/08/09 02:10:42;;;;;;;3.60;2.53;;;12.40;99.90;;;;;;4983909;28;20030;-88
2022/08/09 02:13:11;;;;;;;3.28;2.78;;;12.40;99.90;;;;;;4979926;28;20069;-87
2022/08/09 02:15:41;;;;;;;3.38;2.40;;;12.30;99.90;;;;;;4980862;28;20142;-86
2022/08/09 02:18:07;;;;;;;4.57;2.50;;;12.20;99.90;;;;;;5004125;28;20033;-89
2022/08/09 02:20:40;;;;;;;4.40;2.35;;;12.10;99.90;;;;;;5000807;28;20042;-90
2022/08/09 02:23:14;;;;;;;6.13;2.40;;;12.10;99.90;;;;;;4983831;28;20105;-89
2022/08/09 02:25:42;;;;;;;3.55;2.20;;;12.10;99.90;;;;;;4998729;28;20026;-90
2022/08/09 02:28:24;;;;;;;4.75;2.65;;;12.00;99.90;;;;;;4981647;28;20058;-89
2022/08/09 02:31:09;;;;;;;5.03;2.20;;;12.00;99.90;;;;;;4980342;28;20081;-89
2022/08/09 02:33:39;;;;;;;6.10;2.67;;;12.00;99.90;;;;;;5003477;28;20045;-88
2022/08/09 02:36:09;;;;;;;3.33;2.40;;;12.00;99.90;;;;;;4980281;28;20157;-90
2022/08/09 02:38:43;;;;;;;3.83;2.25;;;11.90;99.90;;;;;;4979156;28;20027;-88
2022/08/09 02:41:13;;;;;;;5.10;2.30;;;11.90;99.90;;;;;;4979769;28;20043;-89
2022/08/09 02:43:43;;;;;;;5.65;2.50;;;11.80;99.90;;;;;;4978782;28;20045;-89
2022/08/09 02:46:12;;;;;;;3.92;2.50;;;11.70;99.90;;;;;;4986306;28;20041;-89
2022/08/09 02:48:39;;;;;;;6.30;3.58;;;11.70;99.90;;;;;;4992757;28;20113;-84
2022/08/09 02:51:09;;;;;;;2.42;2.17;;;11.70;99.90;;;;;;4980310;28;20037;-87
2022/08/09 02:53:40;;;;;;;3.92;2.30;;;11.60;99.90;;;;;;4977824;28;20116;-90
2022/08/09 02:56:07;;;;;;;3.33;2.40;;;11.60;99.90;;;;;;4977470;28;20022;-89
2022/08/09 02:58:36;;;;;;;5.60;1.98;;;11.50;99.90;;;;;;4978329;28;20041;-87
2022/08/09 03:01:04;;;;;;;3.10;2.55;;;11.50;99.90;;;;;;4978958;28;20533;-86
2022/08/09 03:03:33;;;;;;;3.70;2.25;;;11.40;99.90;;;;;;4996545;28;20088;-87
2022/08/09 03:06:00;;;;;;;4.90;1.90;;;11.30;99.90;;;;;;4996056;28;20050;-87
2022/08/09 03:08:27;;;;;;;4.45;2.08;;;11.30;99.90;;;;;;4979541;28;20137;-89
2022/08/09 03:10:54;;;;;;;4.25;2.47;;;11.30;99.90;;;;;;4996393;28;20042;-86
2022/08/09 03:13:21;;;;;;;4.13;2.25;;;11.20;99.90;;;;;;4981055;28;20026;-88
2022/08/09 03:15:47;;;;;;;5.97;2.20;;;11.20;99.90;;;;;;4990068;28;20015;-88
2022/08/09 03:18:14;;;;;;;2.60;2.10;;;11.20;99.90;;;;;;5017312;28;20053;-87
2022/08/09 03:20:42;;;;;;;4.47;2.42;;;11.20;99.90;;;;;;4986120;28;20038;-89
2022/08/09 03:23:09;;;;;;;3.95;2.45;;;11.10;99.90;;;;;;4981959;28;20137;-88
2022/08/09 03:25:37;;;;;;;6.03;2.05;;;11.10;99.90;;;;;;4980584;28;20503;-89
2022/08/09 03:28:04;;;;;;;4.53;2.53;;;11.10;99.90;;;;;;4979092;28;20026;-88
2022/08/09 03:30:31;;;;;;;3.33;2.15;;;11.00;99.90;;;;;;4978434;28;20058;-88
2022/08/09 03:32:58;;;;;;;4.38;2.30;;;11.00;99.90;;;;;;4979386;28;20026;-87
2022/08/09 03:35:24;;;;;;;4.32;2.13;;;11.00;99.90;;;;;;4978635;28;20046;-88
2022/08/09 03:37:52;;;;;;;2.78;2.30;;;10.90;99.90;;;;;;4995872;28;20077;-89
2022/08/09 03:40:18;;;;;;;3.67;2.05;;;10.90;99.90;;;;;;4977764;28;20153;-90
2022/08/09 03:42:44;;;;;;;4.47;2.38;;;10.90;99.90;;;;;;4977982;28;20500;-89
2022/08/09 03:45:10;;;;;;;3.42;2.30;;;10.80;99.90;;;;;;4977862;28;20022;-88
2022/08/09 03:47:36;;;;;;;3.65;2.40;;;10.80;99.90;;;;;;4994948;28;20034;-89
2022/08/09 03:50:05;;;;;;;3.38;2.40;;;10.70;99.90;;;;;;4975578;28;20137;-89
2022/08/09 03:52:32;;;;;;;2.72;2.42;;;10.70;99.90;;;;;;4977689;28;20034;-88
2022/08/09 03:55:01;;;;;;;3.25;2.50;;;10.60;99.90;;;;;;4977617;28;20033;-88
2022/08/09 03:57:28;;;;;;;3.33;2.85;;;10.60;99.90;;;;;;4994844;28;20034;-89
2022/08/09 03:59:54;;;;;;;5.45;2.63;;;10.60;99.90;;;;;;4977043;28;20468;-89
2022/08/09 04:02:20;;;;;;;4.22;3.08;;;10.50;99.90;;;;;;4977566;28;20061;-87
2022/08/09 04:04:46;;;;;;;4.75;2.53;;;10.50;99.90;;;;;;4977324;28;20061;-89
2022/08/09 04:07:12;;;;;;;3.92;2.25;;;10.50;99.90;;;;;;4994388;28;20073;-88
2022/08/09 04:09:38;;;;;;;4.18;2.42;;;10.40;99.90;;;;;;4977413;28;20030;-87
2022/08/09 04:12:09;;;;;;;6.22;2.38;;;10.40;99.90;;;;;;4994200;28;20022;-90
2022/08/09 04:14:39;;;;;;;3.28;2.50;;;10.40;99.90;;;;;;4994273;28;20100;-88
2022/08/09 04:17:06;;;;;;;2.50;2.22;;;10.30;99.90;;;;;;4976769;28;20019;-87
2022/08/09 04:19:32;;;;;;;3.65;2.45;;;10.30;99.90;;;;;;4976519;28;20566;-89
2022/08/09 04:21:58;;;;;;;2.50;2.30;;;10.30;99.90;;;;;;4976726;28;20729;-85
2022/08/09 04:24:26;;;;;;;7.20;2.70;;;10.30;99.90;;;;;;4976995;28;20037;-88
2022/08/09 04:26:53;;;;;;;2.50;2.17;;;10.30;99.90;;;;;;4976402;28;20042;-88
2022/08/09 04:29:19;;;;;;;2.90;2.17;;;10.20;99.90;;;;;;4978078;28;20510;-88
2022/08/09 04:31:46;;;;;;;3.15;2.20;;;10.20;99.90;;;;;;4979145;28;20022;-89
2022/08/09 04:34:11;;;;;;;3.45;2.53;;;10.20;99.90;;;;;;4976115;28;20141;-89
2022/08/09 04:36:37;;;;;;;4.60;2.30;;;10.10;99.90;;;;;;4976241;28;20145;-88
2022/08/09 04:39:09;;;;;;;3.70;2.50;;;10.10;99.90;;;;;;4976534;28;20124;-89
2022/08/09 04:41:35;;;;;;;4.40;2.47;;;10.00;99.90;;;;;;4977562;28;20053;-88
2022/08/09 04:44:02;;;;;;;2.88;2.08;;;10.00;99.90;;;;;;4994048;28;20026;-87
2022/08/09 04:46:28;;;;;;;2.40;2.20;;;10.00;99.90;;;;;;4976597;28;20038;-86
2022/08/09 04:48:54;;;;;;;3.30;2.40;;;9.90;99.90;;;;;;4976042;28;20396;-90
2022/08/09 04:51:19;;;;;;;2.47;2.22;;;9.90;99.90;;;;;;4978226;28;20121;-88
2022/08/09 04:53:45;;;;;;;4.63;2.50;;;9.90;99.90;;;;;;4977573;28;20238;-90
2022/08/09 04:56:11;;;;;;;2.42;2.10;;;9.80;99.90;;;;;;4979663;28;20121;-89
2022/08/09 04:58:36;;;;;;;3.25;2.45;;;9.70;99.90;;;;;;4978551;28;20407;-88
2022/08/09 05:01:02;;;;;;;3.85;2.28;;;9.70;99.90;;;;;;4995514;28;20065;-89
2022/08/09 05:03:28;;;;;;;3.15;2.15;;;9.70;99.90;;;;;;4994483;28;20436;-89
2022/08/09 05:05:54;;;;;;;9.98;2.63;;;9.60;99.90;;;;;;4994117;28;20595;-89
2022/08/09 05:08:20;;;;;;;3.35;1.90;;;9.60;99.90;;;;;;4994378;28;20122;-89
2022/08/09 05:10:46;;;;;;;5.53;2.10;;;9.60;99.90;;;;;;4976374;28;20062;-88
2022/08/09 05:13:12;;;;;;;3.85;2.35;;;9.50;99.90;;;;;;4976043;28;20395;-89
2022/08/09 05:15:38;;;;;;;3.60;2.22;;;9.50;99.90;;;;;;4975850;28;20019;-91
2022/08/09 05:18:03;;;;;;;4.40;2.10;;;9.50;99.90;;;;;;4976035;28;20030;-89
2022/08/09 05:20:29;;;;;;;6.10;2.22;;;9.50;99.90;;;;;;4975819;28;20045;-88
2022/08/09 05:22:55;;;;;;;2.58;2.10;;;9.50;99.90;;;;;;4977311;28;20018;-89
2022/08/09 05:25:23;;;;;;;3.28;1.90;;;9.50;99.90;;;;;;4979392;28;20061;-90
2022/08/09 05:27:49;;;;;;;3.55;2.10;;;9.50;99.90;;;;;;4979459;28;20571;-88
2022/08/09 05:30:16;;;;;;;2.10;1.73;;;9.50;99.90;;;;;;4982516;28;20077;-89
2022/08/09 05:32:43;;;;;;;2.20;2.00;;;9.50;99.90;;;;;;5007977;28;20058;-89
2022/08/09 05:35:10;;;;;;;4.75;2.40;;;9.50;99.90;;;;;;4994300;28;20618;-87
2022/08/09 05:37:36;;;;;;;4.32;1.90;;;9.50;99.90;;;;;;4990298;28;20037;-89
2022/08/09 05:40:03;;;;;;;2.22;1.90;;;9.50;99.90;;;;;;4987490;28;20451;-87
2022/08/09 05:42:29;;;;;;;4.13;2.00;;;9.50;99.90;;;;;;5001438;28;20104;-89
2022/08/09 05:44:55;;;;;;;3.22;2.25;;;9.50;99.90;;;;;;4983793;28;20448;-88
2022/08/09 05:47:22;;;;;;;3.35;2.13;;;9.50;99.90;;;;;;4979566;28;20058;-89
2022/08/09 05:49:52;;;;;;;3.58;2.40;;;9.50;99.90;;;;;;4980096;28;20085;-89
2022/08/09 05:52:18;;;;;;;4.88;2.60;;;9.50;99.90;;;;;;5001484;28;20026;-89
2022/08/09 05:54:44;;;;;;;3.88;2.20;;;9.50;99.90;;;;;;4977295;28;20041;-89
2022/08/09 05:57:10;;;;;;;2.47;2.15;;;9.50;99.90;;;;;;4974503;28;20033;-88
2022/08/09 05:59:35;;;;;;;3.15;2.17;;;9.50;99.90;;;;;;4975208;28;20084;-89
2022/08/09 06:02:02;;;;;;;3.70;1.95;;;9.50;99.90;;;;;;4974779;28;20026;-89
2022/08/09 06:04:27;;;;;;;4.95;3.38;;;9.50;99.90;;;;;;4958391;28;20088;-89
2022/08/09 06:06:53;;;;;;;8.65;2.50;;;9.50;99.90;;;;;;4974601;28;20472;-90
2022/08/09 06:09:19;;;;;;;4.00;2.38;;;9.50;99.90;;;;;;4974359;28;20074;-89
2022/08/09 06:11:45;;;;;;;3.00;2.50;;;9.60;99.90;;;;;;4974234;28;20033;-89
2022/08/09 06:14:11;;;;;;;6.10;2.20;;;9.60;99.90;;;;;;4974847;28;20519;-88
2022/08/09 06:16:37;;;;;;;3.50;2.20;;;9.60;99.90;;;;;;4974425;28;20030;-88
2022/08/09 06:19:03;;;;;;;3.25;2.10;;;9.70;99.90;;;;;;4991730;28;21246;-89
2022/08/09 06:21:28;;;;;;;2.83;2.20;;;9.70;99.90;;;;;;4971619;28;20782;-86
2022/08/09 06:23:54;;;;;;;2.58;1.70;;;9.80;99.90;;;;;;4974905;28;20026;-87
2022/08/09 06:26:21;;;;;;;4.55;1.77;;;9.90;99.90;;;;;;4973996;28;20109;-87
2022/08/09 06:28:54;;;;;;;3.78;2.17;;;9.90;99.90;;;;;;4993556;28;20792;-86
2022/08/09 06:31:20;;;;;;;4.30;2.10;;;10.00;99.90;;;;;;4974611;28;20673;-90
2022/08/09 06:33:45;;;;;;;3.45;1.80;;;10.00;99.90;;;;;;4974099;28;20034;-89
2022/08/09 06:36:11;;;;;;;2.97;1.60;;;10.10;99.90;;;;;;4974294;28;20117;-88
2022/08/09 06:38:37;;;;;;;4.25;1.75;;;10.20;99.90;;;;;;4991762;28;20105;-88
2022/08/09 06:41:04;;;;;;;4.40;1.52;;;10.20;99.90;;;;;;4976617;28;20562;-90
2022/08/09 06:43:30;;;;;;;1.67;1.50;;;10.30;99.90;;;;;;4975069;28;20234;-90
2022/08/09 06:45:56;;;;;;;2.15;1.60;;;10.40;99.90;;;;;;4969748;28;20023;-90
2022/08/09 06:48:23;;;;;;;8.10;1.70;;;10.40;99.90;;;;;;4965624;28;20038;-89
2022/08/09 06:50:49;;;;;;;5.40;1.30;;;10.50;99.90;;;;;;4970028;28;20035;-90
2022/08/09 06:53:14;;;;;;;1.30;1.20;;;10.60;99.90;;;;;;4976106;28;20069;-89
2022/08/09 06:55:40;;;;;;;1.30;1.13;;;10.70;99.90;;;;;;4978335;28;20033;-89
2022/08/09 06:58:06;;;;;;;3.53;1.40;;;10.70;99.90;;;;;;4973355;28;20136;-90
2022/08/09 07:00:33;;;;;;;2.50;1.23;;;10.80;99.90;;;;;;4979192;28;20035;-89
2022/08/09 07:02:59;;;;;;;1.88;1.20;;;10.90;99.90;;;;;;4973440;28;20100;-88
2022/08/09 07:05:25;;;;;;;1.25;0.90;;;11.00;99.90;;;;;;4979890;28;20484;-90
2022/08/09 07:07:53;;;;;;;2.17;1.15;;;11.10;99.90;;;;;;4999300;28;20034;-90
2022/08/09 07:10:19;;;;;;;3.30;1.10;;;11.20;99.90;;;;;;4999940;28;20027;-91
2022/08/09 07:12:45;;;;;;;1.38;1.27;;;11.20;99.90;;;;;;4984916;28;20014;-91
2022/08/09 07:15:11;;;;;;;5.82;1.20;;;11.30;99.90;;;;;;5000337;28;20065;-90
2022/08/09 07:17:36;;;;;;;1.35;1.00;;;11.50;99.90;;;;;;4999111;28;20022;-92
2022/08/09 07:20:05;;;;;;;1.13;0.80;;;11.50;99.90;;;;;;4984622;28;20057;-89
2022/08/09 07:22:31;;;;;;;1.52;1.17;;;11.70;99.90;;;;;;4978267;28;20100;-90
2022/08/09 07:24:57;;;;;;;1.52;0.70;;;11.70;99.90;;;;;;4980560;28;20065;-88
2022/08/09 07:27:24;;;;;;;2.20;1.13;;;11.80;99.90;;;;;;4972684;28;20086;-90
2022/08/09 07:29:50;;;;;;;1.13;0.85;;;12.00;99.90;;;;;;4975354;28;20388;-90
2022/08/09 07:32:15;;;;;;;1.42;0.90;;;12.00;99.90;;;;;;4974209;28;20033;-92
2022/08/09 07:34:41;;;;;;;2.65;1.05;;;12.10;99.90;;;;;;4977496;28;20034;-91
2022/08/09 07:37:08;;;;;;;2.38;1.00;;;12.20;99.90;;;;;;4971373;28;20037;-90
2022/08/09 07:39:36;;;;;;;2.92;1.00;;;12.30;99.90;;;;;;4970654;28;20030;-90
2022/08/09 07:42:03;;;;;;;3.42;1.17;;;12.50;99.90;;;;;;4993747;28;20030;-92
2022/08/09 07:44:28;;;;;;;3.70;1.30;;;12.60;99.90;;;;;;4973286;28;20022;-92
2022/08/09 07:46:54;;;;;;;2.47;1.05;;;12.70;99.90;;;;;;4976120;28;20037;-92
2022/08/09 07:49:20;;;;;;;1.98;0.98;;;12.80;99.90;;;;;;4978677;28;20043;-92
2022/08/09 07:51:49;;;;;;;0.80;0.80;;;13.00;99.90;;;;;;4981228;28;20046;-93
2022/08/09 07:54:15;;;;;;;1.30;1.13;;;13.20;99.90;;;;;;4989956;28;20081;-93
2022/08/09 07:56:41;;;;;;;3.20;1.10;;;13.40;99.90;;;;;;4995119;28;20026;-89
2022/08/09 07:59:07;;;;;;;2.13;0.98;;;13.70;99.90;;;;;;4982977;28;20037;-93
2022/08/09 08:01:34;;;;;;;4.72;1.10;;;13.80;99.90;;;;;;4982343;28;20030;-92
2022/08/09 08:04:01;;;;;;;2.95;1.02;;;14.00;99.90;;;;;;4997742;28;20026;-91
2022/08/09 08:06:29;;;;;;;2.90;0.95;;;14.10;99.90;;;;;;4981106;28;20124;-93
2022/08/09 08:08:55;;;;;;;8.10;1.40;;;14.30;99.90;;;;;;4981020;28;20023;-94
2022/08/09 08:11:21;;;;;;;3.25;0.90;;;14.40;99.90;;;;;;4980942;28;20495;-92
2022/08/09 08:13:46;;;;;;;2.60;0.85;;;14.60;99.90;;;;;;4979384;28;20023;-92
2022/08/09 08:16:12;;;;;;;1.27;1.05;;;14.70;99.90;;;;;;4979185;28;20364;-91
2022/08/09 08:18:38;;;;;;;2.33;0.80;;;14.90;99.90;;;;;;4995635;28;20108;-93
2022/08/09 08:21:04;;;;;;;2.17;0.90;;;15.00;99.90;;;;;;4979852;28;20572;-93
2022/08/09 08:23:30;;;;;;;2.38;0.98;;;15.20;99.90;;;;;;4981070;28;20109;-92
2022/08/09 08:25:56;;;;;;;1.60;0.70;;;15.40;99.90;;;;;;4985305;28;20041;-91
2022/08/09 08:28:22;;;;;;;3.33;1.00;;;15.50;99.90;;;;;;5009518;28;20074;-90
2022/08/09 08:30:47;;;;;;;4.00;0.90;;;15.70;99.90;;;;;;4989148;28;20056;-88
2022/08/09 08:33:14;;;;;;;1.92;0.82;;;15.90;99.90;;;;;;5001436;28;20069;-92
2022/08/09 08:35:40;;;;;;;2.65;0.80;;;16.00;99.90;;;;;;4978807;28;20077;-90
2022/08/09 08:38:06;;;;;;;2.88;0.93;;;16.20;99.90;;;;;;4977627;28;20019;-91
2022/08/09 08:40:32;;;;;;;1.67;0.73;;;16.40;99.90;;;;;;4977831;28;20081;-91
2022/08/09 08:42:59;;;;;;;2.60;1.02;;;16.60;98.90;;;;;;4977207;28;20023;-89
2022/08/09 08:45:47;;;;;;;2.17;0.80;;;16.70;98.00;;;;;;4994757;28;20023;-90
2022/08/09 08:48:13;;;;;;;3.60;1.10;;;16.90;97.20;;;;;;4976236;28;20416;-91
2022/08/09 08:50:39;;;;;;;3.85;0.75;;;17.10;96.60;;;;;;4976967;28;20037;-92
2022/08/09 08:53:06;;;;;;;3.17;0.93;;;17.40;96.00;;;;;;4977401;28;20034;-90
2022/08/09 08:55:32;;;;;;;5.00;0.90;;;17.60;95.00;;;;;;4996453;28;20029;-89
2022/08/09 08:57:57;;;;;;;2.40;0.70;;;17.80;94.20;;;;;;4979277;28;20035;-92
2022/08/09 09:00:24;;;;;;;1.52;0.80;;;18.00;93.70;;;;;;4977638;28;20478;-91
2022/08/09 09:02:50;;;;;;;2.78;0.80;;;18.20;93.10;;;;;;4977597;28;20050;-91
2022/08/09 09:05:23;;;;;;;2.38;0.70;;;18.40;92.50;;;;;;4977620;28;20022;-91
2022/08/09 09:07:51;;;;;;;2.13;0.80;;;18.70;91.50;;;;;;4976889;28;20073;-90
2022/08/09 09:10:17;;;;;;;1.40;0.88;;;18.90;90.30;;;;;;4975915;28;20116;-92
2022/08/09 09:12:47;;;;;;;3.85;1.08;;;19.10;87.90;;;;;;4975977;28;20065;-93
2022/08/09 09:15:13;;;;;;;1.63;0.90;;;19.30;86.10;;;;;;4975778;28;20037;-91
2022/08/09 09:17:39;;;;;;;1.95;0.95;;;19.60;84.30;;;;;;4976548;28;20102;-90
2022/08/09 09:20:09;;;;;;;2.13;0.82;;;19.80;82.30;;;;;;4977777;28;20034;-92
2022/08/09 09:22:57;;;;;;;2.15;1.27;;;20.00;81.40;;;;;;4982197;28;20022;-90
2022/08/09 09:25:37;;;;;;;4.15;1.40;;;20.30;80.90;;;;;;4986476;28;20027;-90
2022/08/09 09:28:05;;;;;;;4.75;1.10;;;20.50;80.50;;;;;;4986766;28;20029;-92
2022/08/09 09:30:31;;;;;;;3.25;1.25;;;20.70;79.90;;;;;;4985249;28;20108;-90
2022/08/09 09:33:06;;;;;;;2.75;1.10;;;20.80;79.00;;;;;;4986742;28;20026;-90
2022/08/09 09:35:32;;;;;;;4.57;1.90;;;21.10;78.70;;;;;;4998115;28;20023;-90
2022/08/09 09:37:59;;;;;;;3.17;1.00;;;21.30;78.20;;;;;;4978016;28;20050;-90
2022/08/09 09:40:51;;;;;;;2.08;1.38;;;21.60;76.20;;;;;;4978561;28;20140;-90
2022/08/09 09:43:19;;;;;;;4.93;1.40;;;21.80;74.90;;;;;;4970683;28;20551;-90
2022/08/09 09:45:52;;;;;;;4.90;0.90;;;22.00;74.50;;;;;;4975534;28;20032;-92
2022/08/09 09:48:19;;;;;;;2.90;0.88;;;22.10;73.00;;;;;;4992593;28;20447;-92
2022/08/09 09:50:50;;;;;;;3.45;1.02;;;22.30;72.10;;;;;;4990871;28;20061;-92
2022/08/09 09:53:24;;;;;;;1.30;0.82;;;22.50;70.90;;;;;;4977442;28;20076;-92
2022/08/09 09:56:00;;;;;;;7.53;1.05;;;22.60;69.80;;;;;;4994717;28;20046;-93
2022/08/09 09:58:44;;;;;;;1.65;0.93;;;22.80;69.00;;;;;;4977047;28;20080;-92
2022/08/09 10:01:22;;;;;;;3.20;0.95;;;23.10;68.10;;;;;;4957634;28;20043;-93
2022/08/09 10:03:50;;;;;;;1.85;0.88;;;23.30;67.50;;;;;;4958236;28;20025;-93
2022/08/09 10:06:16;;;;;;;3.15;0.95;;;23.50;66.40;;;;;;4959813;28;20023;-94
2022/08/09 10:08:44;;;;;;;3.70;0.90;;;23.70;65.70;;;;;;4958766;28;20034;-93
2022/08/09 10:11:24;;;;;;;4.93;0.95;;;23.80;65.80;;;;;;4963953;28;20050;-95
2022/08/09 10:13:52;;;;;;;2.15;0.98;;;23.90;64.70;;;;;;4964260;28;20038;-93
2022/08/09 10:16:31;;;;;;;4.90;1.10;;;24.10;64.70;;;;;;4979344;28;20023;-94
2022/08/09 10:19:08;;;;;;;3.90;1.20;;;24.20;64.40;;;;;;4962585;28;20035;-93
2022/08/09 10:21:43;;;;;;;5.35;1.77;;;24.30;63.90;;;;;;4962842;28;20038;-93
2022/08/09 10:24:10;;;;;;;4.28;1.27;;;24.40;63.60;;;;;;4962831;28;20023;-93
2022/08/09 10:26:39;;;;;;;4.20;1.42;;;24.50;63.60;;;;;;4963220;28;20038;-92
2022/08/09 10:29:05;;;;;;;2.25;1.00;;;24.70;63.30;;;;;;4980605;28;20077;-92
2022/08/09 10:31:31;;;;;;;2.60;1.00;;;24.90;63.20;;;;;;4988746;28;20034;-93
2022/08/09 10:33:57;;;;;;;4.15;1.33;;;25.10;63.30;;;;;;4987537;28;20032;-93
2022/08/09 10:36:24;;;;;;;2.47;1.10;;;25.30;62.60;;;;;;4997724;28;20043;-93
2022/08/09 10:38:49;;;;;;;6.75;2.33;;;25.40;61.90;;;;;;4979954;28;20023;-92
2022/08/09 10:41:17;;;;;;;4.53;1.63;;;25.60;61.10;;;;;;4996666;28;20397;-94
2022/08/09 10:43:48;;;;;;;2.13;1.23;;;25.70;60.60;;;;;;4980760;28;20038;-92
2022/08/09 10:46:19;;;;;;;1.90;1.58;;;25.80;60.20;;;;;;4980500;28;20117;-92
2022/08/09 10:48:54;;;;;;;2.78;1.10;;;25.90;59.90;;;;;;4981369;28;20039;-94
2022/08/09 10:51:31;;;;;;;3.55;1.40;;;26.10;59.20;;;;;;4981264;28;20031;-93
2022/08/09 10:54:04;;;;;;;2.42;1.20;;;26.10;57.90;;;;;;4979752;28;20130;-92
2022/08/09 10:56:33;;;;;;;2.53;1.10;;;26.10;57.80;;;;;;4980468;28;20029;-93
2022/08/09 10:59:02;;;;;;;3.70;1.25;;;26.30;57.70;;;;;;4979109;28;20069;-90
2022/08/09 11:01:36;;;;;;;3.50;1.40;;;26.40;57.60;;;;;;4995570;28;20033;-94
2022/08/09 11:04:07;;;;;;;5.65;1.55;;;26.50;57.60;;;;;;4993494;28;20038;-94
2022/08/09 11:06:35;;;;;;;4.05;1.50;;;26.60;57.50;;;;;;4983124;28;20030;-93
2022/08/09 11:09:02;;;;;;;3.92;1.55;;;26.50;57.20;;;;;;4974312;28;20532;-89
2022/08/09 11:11:56;;;;;;;2.72;1.55;;;26.60;57.40;;;;;;4966092;28;20126;-90
2022/08/09 11:14:47;;;;;;;6.90;1.35;;;26.80;57.60;;;;;;4988052;28;20030;-94
2022/08/09 11:17:12;;;;;;;;;;;27.20;57.50;;;;;;4999850;28;20076;-95
2022/08/09 11:19:59;;;;;;;2.85;1.00;;;27.40;57.10;;;;;;4993445;28;19918;-93
2022/08/09 11:22:43;;;;;;;3.20;1.30;;;27.60;55.90;;;;;;4995968;28;20480;-94
2022/08/09 11:25:21;;;;;;;1.40;1.00;;;27.70;55.70;;;;;;5001432;28;20064;-89
2022/08/09 11:27:52;;;;;;;2.63;1.40;;;27.90;55.60;;;;;;5002251;28;20023;-94
2022/08/09 11:30:21;;;;;;;6.50;1.35;;;28.10;55.30;;;;;;4996489;28;20032;-95
2022/08/09 11:32:48;;;;;;;2.33;1.40;;;28.10;54.70;;;;;;4987958;28;20104;-94
2022/08/09 11:35:27;;;;;;;2.75;1.20;;;28.20;54.80;;;;;;4981623;28;20365;-95
2022/08/09 11:37:57;;;;;;;3.60;1.40;;;28.40;54.30;;;;;;4986391;28;20052;-94
2022/08/09 11:40:23;;;;;;;5.32;1.60;;;28.50;54.20;;;;;;4985639;28;20037;-94
2022/08/09 11:42:51;;;;;;;4.82;1.45;;;28.60;54.20;;;;;;4988943;28;20026;-93
2022/08/09 11:45:29;;;;;;;5.80;1.98;;;28.70;54.10;;;;;;4989159;28;20042;-95
2022/08/09 11:48:15;;;;;;;3.80;1.45;;;28.80;53.70;;;;;;4981819;28;20116;-93
2022/08/09 11:50:56;;;;;;;3.30;1.35;;;29.00;53.20;;;;;;4965193;28;20038;-94
2022/08/09 11:53:24;;;;;;;1.40;1.10;;;29.10;53.00;;;;;;4967915;28;20026;-94
2022/08/09 11:55:54;;;;;;;3.85;1.60;;;29.10;51.90;;;;;;4957991;28;20027;-94
2022/08/09 11:58:19;;;;;;;2.75;1.42;;;29.10;51.90;;;;;;4957038;28;20102;-92
2022/08/09 12:00:54;;;;;;;6.78;1.35;;;29.20;52.40;;;;;;4953361;29;20027;-95
2022/08/09 12:03:22;;;;;;;3.58;1.40;;;29.20;52.40;;;;;;4955762;28;20027;-96
2022/08/09 12:05:50;;;;;;;5.47;1.52;;;29.20;52.50;;;;;;4947904;29;20051;-94
2022/08/09 12:08:17;;;;;;;5.00;1.20;;;29.40;52.30;;;;;;4956788;28;20387;-93
2022/08/09 12:10:52;;;;;;;3.47;1.55;;;29.60;52.30;;;;;;4968887;28;20030;-93
2022/08/09 12:13:36;;;;;;;4.70;1.10;;;29.80;52.10;;;;;;4990485;28;20062;-94
2022/08/09 12:16:08;;;;;;;5.60;1.73;;;30.00;51.80;;;;;;4973107;28;20122;-93
2022/08/09 12:18:37;;;;;;;4.25;1.20;;;30.00;51.40;;;;;;4971458;28;20052;-94
2022/08/09 12:21:07;;;;;;;8.20;1.40;;;29.90;51.40;;;;;;4968727;28;20034;-95
2022/08/09 12:23:42;;;;;;;5.22;1.38;;;29.70;51.20;;;;;;4954139;28;20031;-93
2022/08/09 12:26:08;;;;;;;5.47;1.20;;;29.60;51.10;;;;;;4966708;28;20038;-92
2022/08/09 12:28:38;;;;;;;6.93;1.73;;;29.50;51.40;;;;;;4948982;28;20046;-93
2022/08/09 12:31:23;;;;;;;2.78;1.27;;;29.30;51.80;;;;;;4969817;28;20034;-94
2022/08/09 12:33:49;;;;;;;3.63;1.40;;;29.20;52.20;;;;;;4962379;28;20367;-94
2022/08/09 12:36:16;;;;;;;6.82;1.33;;;29.10;52.60;;;;;;4962417;28;20027;-96
2022/08/09 12:38:41;;;;;;;4.95;1.50;;;28.90;52.80;;;;;;4980440;28;20022;-96
2022/08/09 12:41:08;;;;;;;5.40;1.70;;;28.80;53.00;;;;;;4977723;28;20034;-93
2022/08/09 12:43:34;;;;;;;7.88;1.67;;;28.70;53.10;;;;;;4977152;28;20101;-92
2022/08/09 12:46:01;;;;;;;6.63;2.17;;;28.70;53.20;;;;;;4959859;28;20042;-93
2022/08/09 12:48:30;;;;;;;6.00;1.50;;;28.80;53.40;;;;;;4965091;28;20117;-92
2022/08/09 12:50:56;;;;;;;5.72;1.70;;;28.80;53.40;;;;;;4979709;28;20181;-93
2022/08/09 12:53:37;;;;;;;6.05;1.92;;;28.90;53.40;;;;;;4979148;28;20487;-91
2022/08/09 12:56:04;;;;;;;3.10;1.58;;;28.80;53.00;;;;;;4981044;28;20196;-92